createdAt,value
2017-08-02T00:00:49.242Z,0
2017-08-02T00:02:01.486Z,0
2017-08-02T00:03:14.033Z,0
2017-08-02T00:04:26.636Z,0
2017-08-02T00:05:38.896Z,0
2017-08-02T00:06:51.526Z,0
2017-08-02T00:08:03.811Z,0
2017-08-02T00:09:16.390Z,0
2017-08-02T00:10:29.006Z,0
2017-08-02T00:11:41.600Z,0
2017-08-02T00:12:53.852Z,0
2017-08-02T00:14:06.479Z,0
2017-08-02T00:15:18.813Z,0
2017-08-02T00:16:31.120Z,0
2017-08-02T00:17:43.741Z,0
2017-08-02T00:18:56.363Z,0
2017-08-02T00:20:08.932Z,0
2017-08-02T00:21:21.250Z,0
2017-08-02T00:22:33.825Z,0
2017-08-02T00:23:46.409Z,0
2017-08-02T00:24:58.698Z,0
2017-08-02T00:26:11.493Z,0
2017-08-02T00:27:24.054Z,0
2017-08-02T00:28:36.654Z,0
2017-08-02T00:29:48.982Z,0
2017-08-02T00:31:01.228Z,0
2017-08-02T00:32:13.825Z,0
2017-08-02T00:33:26.403Z,0
2017-08-02T00:34:38.037Z,0
2017-08-02T00:35:50.622Z,0
2017-08-02T00:37:02.940Z,0
2017-08-02T00:38:15.217Z,0
2017-08-02T00:39:27.494Z,0
2017-08-02T00:40:39.481Z,0
2017-08-02T00:41:51.781Z,0
2017-08-02T00:43:03.794Z,0
2017-08-02T00:44:16.351Z,0
2017-08-02T00:45:28.913Z,0
2017-08-02T00:46:41.235Z,0
2017-08-02T00:47:53.228Z,0
2017-08-02T00:49:05.775Z,0
2017-08-02T00:50:18.337Z,0
2017-08-02T00:51:30.616Z,0
2017-08-02T00:52:43.144Z,0
2017-08-02T00:53:55.761Z,0
2017-08-02T00:55:08.097Z,0
2017-08-02T00:56:20.382Z,0
2017-08-02T00:57:32.921Z,0
2017-08-02T00:58:45.515Z,0
2017-08-02T00:59:57.480Z,0
2017-08-02T01:01:10.080Z,0
2017-08-02T01:02:22.405Z,0
2017-08-02T01:03:35.017Z,0
2017-08-02T01:04:47.307Z,0
2017-08-02T01:05:59.639Z,0
2017-08-02T01:07:11.606Z,0
2017-08-02T01:08:24.216Z,0
2017-08-02T01:09:36.847Z,0
2017-08-02T01:10:49.132Z,0
2017-08-02T01:12:01.431Z,0
2017-08-02T01:13:13.760Z,0
2017-08-02T01:14:26.064Z,0
2017-08-02T01:15:38.636Z,0
2017-08-02T01:16:50.965Z,0
2017-08-02T01:18:03.549Z,0
2017-08-02T01:19:16.097Z,0
2017-08-02T01:20:28.382Z,0
2017-08-02T01:21:40.388Z,0
2017-08-02T01:22:52.733Z,0
2017-08-02T01:24:05.067Z,0
2017-08-02T01:25:17.912Z,0
2017-08-02T01:26:30.534Z,0
2017-08-02T01:27:42.819Z,0
2017-08-02T01:28:55.446Z,0
2017-08-02T01:30:07.435Z,0
2017-08-02T01:31:19.987Z,0
2017-08-02T01:32:31.993Z,0
2017-08-02T01:33:44.653Z,0
2017-08-02T01:34:56.941Z,0
2017-08-02T01:36:09.239Z,0
2017-08-02T01:37:21.776Z,0
2017-08-02T01:38:34.331Z,0
2017-08-02T01:39:46.602Z,0
2017-08-02T01:40:58.880Z,0
2017-08-02T01:42:11.455Z,0
2017-08-02T01:43:24.040Z,0
2017-08-02T01:44:36.585Z,0
2017-08-02T01:45:48.832Z,0
2017-08-02T01:47:01.476Z,0
2017-08-02T01:48:14.085Z,0
2017-08-02T01:49:26.705Z,0
2017-08-02T01:50:39.359Z,0
2017-08-02T01:51:52.004Z,0
2017-08-02T01:53:04.539Z,0
2017-08-02T01:54:16.870Z,0
2017-08-02T01:55:29.156Z,0
2017-08-02T01:56:41.168Z,0
2017-08-02T01:57:53.378Z,0
2017-08-02T01:59:05.987Z,0
2017-08-02T02:00:18.533Z,0
2017-08-02T02:01:30.831Z,0
2017-08-02T02:02:42.798Z,0
2017-08-02T02:03:55.096Z,0
2017-08-02T02:05:07.352Z,0
2017-08-02T02:06:19.988Z,0
2017-08-02T02:07:32.615Z,0
2017-08-02T02:08:44.844Z,0
2017-08-02T02:09:56.833Z,0
2017-08-02T02:11:09.453Z,0
2017-08-02T02:12:22.044Z,0
2017-08-02T02:13:33.962Z,0
2017-08-02T02:14:46.559Z,0
2017-08-02T02:15:59.130Z,0
2017-08-02T02:17:11.676Z,0
2017-08-02T02:18:23.958Z,0
2017-08-02T02:19:36.835Z,0
2017-08-02T02:20:49.136Z,0
2017-08-02T02:22:01.411Z,0
2017-08-02T02:23:13.453Z,0
2017-08-02T02:24:26.002Z,0
2017-08-02T02:25:38.303Z,0
2017-08-02T02:26:50.889Z,0
2017-08-02T02:28:03.225Z,0
2017-08-02T02:29:15.535Z,0
2017-08-02T02:30:28.141Z,0
2017-08-02T02:31:40.709Z,0
2017-08-02T02:32:53.272Z,0
2017-08-02T02:34:05.523Z,0
2017-08-02T02:35:18.050Z,0
2017-08-02T02:36:30.317Z,0
2017-08-02T02:37:42.951Z,0
2017-08-02T02:38:54.957Z,0
2017-08-02T02:40:06.716Z,0
2017-08-02T02:41:18.355Z,0
2017-08-02T02:42:30.977Z,0
2017-08-02T02:43:43.664Z,0
2017-08-02T02:44:55.628Z,0
2017-08-02T02:46:08.229Z,0
2017-08-02T02:47:20.798Z,0
2017-08-02T02:48:33.413Z,0
2017-08-02T02:49:46.139Z,4
2017-08-02T02:50:58.437Z,4
2017-08-02T02:52:11.325Z,4
2017-08-02T02:53:23.853Z,4
2017-08-02T02:54:36.431Z,4
2017-08-02T02:55:49.086Z,4
2017-08-02T02:57:00.758Z,8
2017-08-02T02:58:13.066Z,4
2017-08-02T02:59:25.690Z,8
2017-08-02T03:00:38.246Z,12
2017-08-02T03:01:50.510Z,12
2017-08-02T03:03:03.399Z,12
2017-08-02T03:04:15.984Z,16
2017-08-02T03:05:28.263Z,20
2017-08-02T03:06:40.540Z,24
2017-08-02T03:07:53.154Z,24
2017-08-02T03:09:05.724Z,32
2017-08-02T03:10:18.260Z,36
2017-08-02T03:11:30.543Z,44
2017-08-02T03:12:43.124Z,52
2017-08-02T03:13:55.449Z,60
2017-08-02T03:15:07.797Z,68
2017-08-02T03:16:20.057Z,80
2017-08-02T03:17:32.671Z,88
2017-08-02T03:18:45.273Z,100
2017-08-02T03:19:57.924Z,112
2017-08-02T03:21:10.220Z,124
2017-08-02T03:22:22.887Z,140
2017-08-02T03:23:35.501Z,160
2017-08-02T03:24:48.097Z,176
2017-08-02T03:26:00.653Z,196
2017-08-02T03:27:13.321Z,216
2017-08-02T03:28:25.948Z,240
2017-08-02T03:29:38.287Z,260
2017-08-02T03:30:50.534Z,284
2017-08-02T03:32:02.809Z,312
2017-08-02T03:33:14.828Z,336
2017-08-02T03:34:26.845Z,360
2017-08-02T03:35:38.821Z,392
2017-08-02T03:36:51.187Z,428
2017-08-02T03:38:03.776Z,460
2017-08-02T03:39:16.373Z,496
2017-08-02T03:40:28.975Z,532
2017-08-02T03:41:41.605Z,576
2017-08-02T03:42:54.136Z,616
2017-08-02T03:44:06.732Z,660
2017-08-02T03:45:19.360Z,708
2017-08-02T03:46:31.674Z,764
2017-08-02T03:47:44.301Z,832
2017-08-02T03:48:56.607Z,916
2017-08-02T03:50:08.591Z,996
2017-08-02T03:51:20.907Z,1080
2017-08-02T03:52:33.511Z,1152
2017-08-02T03:53:46.173Z,1224
2017-08-02T03:54:58.731Z,1292
2017-08-02T03:56:10.697Z,1376
2017-08-02T03:57:23.335Z,1488
2017-08-02T03:58:35.964Z,1612
2017-08-02T03:59:48.579Z,1708
2017-08-02T04:01:00.935Z,1792
2017-08-02T04:02:12.931Z,1864
2017-08-02T04:03:25.551Z,1928
2017-08-02T04:04:38.136Z,2004
2017-08-02T04:05:50.385Z,2208
2017-08-02T04:07:02.640Z,2480
2017-08-02T04:08:14.925Z,2760
2017-08-02T04:09:27.468Z,2936
2017-08-02T04:10:39.719Z,3024
2017-08-02T04:11:52.080Z,3080
2017-08-02T04:13:04.048Z,3328
2017-08-02T04:14:16.661Z,3552
2017-08-02T04:15:29.187Z,3660
2017-08-02T04:16:41.772Z,3608
2017-08-02T04:17:54.358Z,3576
2017-08-02T04:19:06.376Z,3556
2017-08-02T04:20:19.100Z,3672
2017-08-02T04:21:31.666Z,3740
2017-08-02T04:22:44.214Z,3848
2017-08-02T04:23:56.805Z,3828
2017-08-02T04:25:09.595Z,3696
2017-08-02T04:26:22.196Z,3708
2017-08-02T04:27:34.472Z,4024
2017-08-02T04:28:47.116Z,4192
2017-08-02T04:29:59.175Z,4308
2017-08-02T04:31:11.115Z,4436
2017-08-02T04:32:23.349Z,4360
2017-08-02T04:33:35.642Z,4304
2017-08-02T04:34:47.916Z,3884
2017-08-02T04:36:00.530Z,3560
2017-08-02T04:37:12.428Z,3412
2017-08-02T04:38:25.022Z,3096
2017-08-02T04:39:37.268Z,2720
2017-08-02T04:40:49.830Z,2544
2017-08-02T04:42:01.801Z,2552
2017-08-02T04:43:13.787Z,2680
2017-08-02T04:44:26.053Z,2796
2017-08-02T04:45:38.675Z,3028
2017-08-02T04:46:50.943Z,3400
2017-08-02T04:48:03.577Z,3560
2017-08-02T04:49:16.218Z,3520
2017-08-02T04:50:28.495Z,3308
2017-08-02T04:51:41.106Z,3232
2017-08-02T04:52:53.480Z,3168
2017-08-02T04:54:06.094Z,2952
2017-08-02T04:55:18.323Z,2872
2017-08-02T04:56:30.898Z,2912
2017-08-02T04:57:42.560Z,2976
2017-08-02T04:58:54.871Z,3148
2017-08-02T05:00:07.178Z,3448
2017-08-02T05:01:19.511Z,3848
2017-08-02T05:02:31.767Z,4324
2017-08-02T05:03:44.338Z,4820
2017-08-02T05:04:56.975Z,5416
2017-08-02T05:06:09.288Z,6028
2017-08-02T05:07:21.855Z,6540
2017-08-02T05:08:34.451Z,6608
2017-08-02T05:09:46.742Z,6508
2017-08-02T05:10:59.080Z,5904
2017-08-02T05:12:11.775Z,5776
2017-08-02T05:13:24.255Z,6620
2017-08-02T05:14:36.848Z,7364
2017-08-02T05:15:49.095Z,7148
2017-08-02T05:17:01.393Z,6396
2017-08-02T05:18:13.614Z,6424
2017-08-02T05:19:26.219Z,6540
2017-08-02T05:20:38.858Z,6348
2017-08-02T05:21:51.501Z,7140
2017-08-02T05:23:03.852Z,7192
2017-08-02T05:24:16.451Z,7772
2017-08-02T05:25:28.764Z,7992
2017-08-02T05:26:41.284Z,8424
2017-08-02T05:27:53.616Z,8696
2017-08-02T05:29:06.236Z,8332
2017-08-02T05:30:17.909Z,7820
2017-08-02T05:31:30.495Z,8452
2017-08-02T05:32:43.092Z,8948
2017-08-02T05:33:55.689Z,9664
2017-08-02T05:35:07.656Z,9808
2017-08-02T05:36:20.229Z,9868
2017-08-02T05:37:32.754Z,9848
2017-08-02T05:38:45.425Z,9956
2017-08-02T05:39:58.067Z,10092
2017-08-02T05:41:10.602Z,10896
2017-08-02T05:42:23.162Z,10580
2017-08-02T05:43:35.493Z,10220
2017-08-02T05:44:48.057Z,11412
2017-08-02T05:46:00.669Z,12180
2017-08-02T05:47:12.940Z,10284
2017-08-02T05:48:25.516Z,12288
2017-08-02T05:49:37.783Z,13140
2017-08-02T05:50:50.284Z,14228
2017-08-02T05:52:02.874Z,14060
2017-08-02T05:53:14.845Z,12764
2017-08-02T05:54:27.390Z,12016
2017-08-02T05:55:39.902Z,11544
2017-08-02T05:56:52.318Z,11384
2017-08-02T05:58:04.306Z,12220
2017-08-02T05:59:16.905Z,12600
2017-08-02T06:00:29.195Z,11996
2017-08-02T06:01:41.821Z,12416
2017-08-02T06:02:54.454Z,13252
2017-08-02T06:04:06.758Z,13572
2017-08-02T06:05:19.036Z,15840
2017-08-02T06:06:31.314Z,18144
2017-08-02T06:07:43.946Z,19296
2017-08-02T06:08:56.240Z,20736
2017-08-02T06:10:08.548Z,23136
2017-08-02T06:11:21.175Z,23712
2017-08-02T06:12:33.784Z,22656
2017-08-02T06:13:46.325Z,22240
2017-08-02T06:14:58.933Z,22016
2017-08-02T06:16:11.519Z,21536
2017-08-02T06:17:23.493Z,21568
2017-08-02T06:18:35.809Z,19872
2017-08-02T06:19:47.781Z,18720
2017-08-02T06:21:00.350Z,17632
2017-08-02T06:22:12.645Z,16396
2017-08-02T06:23:25.244Z,15136
2017-08-02T06:24:37.831Z,15284
2017-08-02T06:25:50.395Z,16256
2017-08-02T06:27:02.691Z,17888
2017-08-02T06:28:14.997Z,20192
2017-08-02T06:29:27.559Z,27104
2017-08-02T06:30:40.119Z,29856
2017-08-02T06:31:52.663Z,29568
2017-08-02T06:33:04.960Z,27584
2017-08-02T06:34:17.256Z,26368
2017-08-02T06:35:29.913Z,36864
2017-08-02T06:36:42.497Z,20800
2017-08-02T06:37:54.486Z,20864
2017-08-02T06:39:07.074Z,19040
2017-08-02T06:40:19.967Z,17568
2017-08-02T06:41:32.555Z,17216
2017-08-02T06:42:44.851Z,17248
2017-08-02T06:43:56.782Z,16936
2017-08-02T06:45:09.070Z,16400
2017-08-02T06:46:21.642Z,16064
2017-08-02T06:47:34.302Z,17664
2017-08-02T06:48:46.881Z,15640
2017-08-02T06:49:59.203Z,15452
2017-08-02T06:51:11.773Z,15212
2017-08-02T06:52:24.321Z,15004
2017-08-02T06:53:36.915Z,14864
2017-08-02T06:54:49.484Z,14464
2017-08-02T06:56:01.461Z,14284
2017-08-02T06:57:14.027Z,14048
2017-08-02T06:58:26.298Z,13792
2017-08-02T06:59:38.844Z,13608
2017-08-02T07:00:51.394Z,13644
2017-08-02T07:02:03.693Z,13892
2017-08-02T07:03:16.282Z,14240
2017-08-02T07:04:28.257Z,14684
2017-08-02T07:05:40.523Z,14968
2017-08-02T07:06:53.139Z,15356
2017-08-02T07:08:05.746Z,16312
2017-08-02T07:09:18.001Z,18400
2017-08-02T07:10:30.564Z,21792
2017-08-02T07:11:42.817Z,31104
2017-08-02T07:12:55.074Z,24544
2017-08-02T07:14:07.722Z,25568
2017-08-02T07:15:19.753Z,16092
2017-08-02T07:16:32.037Z,21088
2017-08-02T07:17:44.594Z,23040
2017-08-02T07:18:56.928Z,30176
2017-08-02T07:20:08.909Z,20672
2017-08-02T07:21:20.902Z,23232
2017-08-02T07:22:33.445Z,23168
2017-08-02T07:23:46.274Z,50080
2017-08-02T07:24:58.587Z,48480
2017-08-02T07:26:11.204Z,29728
2017-08-02T07:27:23.762Z,38752
2017-08-02T07:28:36.376Z,55360
2017-08-02T07:29:48.704Z,50272
2017-08-02T07:31:00.716Z,28512
2017-08-02T07:32:12.985Z,29152
2017-08-02T07:33:25.254Z,45920
2017-08-02T07:34:37.581Z,43296
2017-08-02T07:35:50.185Z,47072
2017-08-02T07:37:02.773Z,50784
2017-08-02T07:38:15.340Z,42208
2017-08-02T07:39:27.561Z,61248
2017-08-02T07:40:39.855Z,32160
2017-08-02T07:41:52.169Z,32288
2017-08-02T07:43:04.508Z,32384
2017-08-02T07:44:16.510Z,38560
2017-08-02T07:45:29.350Z,43136
2017-08-02T07:46:41.962Z,45888
2017-08-02T07:47:54.292Z,34528
2017-08-02T07:49:06.577Z,31872
2017-08-02T07:50:18.884Z,27968
2017-08-02T07:51:30.897Z,27328
2017-08-02T07:52:43.232Z,28192
2017-08-02T07:53:55.521Z,32000
2017-08-02T07:55:07.555Z,36960
2017-08-02T07:56:19.832Z,28512
2017-08-02T07:57:32.175Z,34624
2017-08-02T07:58:44.869Z,25920
2017-08-02T07:59:56.882Z,39232
2017-08-02T08:01:09.260Z,46400
2017-08-02T08:02:21.887Z,69632
2017-08-02T08:03:33.862Z,37696
2017-08-02T08:04:46.484Z,36160
2017-08-02T08:05:58.868Z,50432
2017-08-02T08:07:11.194Z,38112
2017-08-02T08:08:23.782Z,44448
2017-08-02T08:09:36.068Z,61568
2017-08-02T08:10:48.682Z,64032
2017-08-02T08:12:01.016Z,63968
2017-08-02T08:13:13.012Z,33568
2017-08-02T08:14:25.617Z,58560
2017-08-02T08:15:38.246Z,59264
2017-08-02T08:16:50.864Z,60576
2017-08-02T08:18:03.690Z,60768
2017-08-02T08:19:16.337Z,60608
2017-08-02T08:20:28.947Z,53408
2017-08-02T08:21:41.276Z,35776
2017-08-02T08:22:53.250Z,40320
2017-08-02T08:24:05.607Z,36896
2017-08-02T08:25:18.231Z,42240
2017-08-02T08:26:30.269Z,34112
2017-08-02T08:27:42.883Z,37920
2017-08-02T08:28:55.178Z,40192
2017-08-02T08:30:07.192Z,32608
2017-08-02T08:31:19.234Z,28832
2017-08-02T08:32:31.196Z,27008
2017-08-02T08:33:43.800Z,26080
2017-08-02T08:34:56.090Z,26144
2017-08-02T08:36:08.647Z,27168
2017-08-02T08:37:20.968Z,27584
2017-08-02T08:38:33.556Z,26624
2017-08-02T08:39:45.904Z,21312
2017-08-02T08:40:58.216Z,20448
2017-08-02T08:42:10.523Z,40320
2017-08-02T08:43:23.194Z,77088
2017-08-02T08:44:35.139Z,73696
2017-08-02T08:45:47.392Z,21120
2017-08-02T08:46:59.761Z,21472
2017-08-02T08:48:12.433Z,28224
2017-08-02T08:49:25.001Z,33600
2017-08-02T08:50:37.242Z,32576
2017-08-02T08:51:49.538Z,33568
2017-08-02T08:53:01.847Z,29600
2017-08-02T08:54:13.882Z,27200
2017-08-02T08:55:26.466Z,26240
2017-08-02T08:56:38.749Z,30368
2017-08-02T08:57:51.004Z,29632
2017-08-02T08:59:03.340Z,29824
2017-08-02T09:00:15.635Z,27072
2017-08-02T09:01:27.583Z,25824
2017-08-02T09:02:39.558Z,30432
2017-08-02T09:03:51.903Z,28384
2017-08-02T09:05:04.199Z,26432
2017-08-02T09:06:16.471Z,24448
2017-08-02T09:07:29.036Z,24224
2017-08-02T09:08:41.598Z,23296
2017-08-02T09:09:53.605Z,37632
2017-08-02T09:11:05.862Z,28896
2017-08-02T09:12:18.477Z,64608
2017-08-02T09:13:30.194Z,64896
2017-08-02T09:14:42.293Z,53248
2017-08-02T09:15:54.594Z,64576
2017-08-02T09:17:06.902Z,66144
2017-08-02T09:18:18.909Z,67232
2017-08-02T09:19:31.521Z,63200
2017-08-02T09:20:44.135Z,61824
2017-08-02T09:21:56.414Z,58624
2017-08-02T09:23:08.968Z,65440
2017-08-02T09:24:21.008Z,67104
2017-08-02T09:25:33.306Z,71744
2017-08-02T09:26:45.310Z,66624
2017-08-02T09:27:57.605Z,54528
2017-08-02T09:29:10.278Z,31968
2017-08-02T09:30:22.938Z,27712
2017-08-02T09:31:35.228Z,24256
2017-08-02T09:32:47.483Z,22880
2017-08-02T09:34:00.151Z,27424
2017-08-02T09:35:12.724Z,34496
2017-08-02T09:36:25.351Z,38240
2017-08-02T09:37:37.696Z,34752
2017-08-02T09:38:50.292Z,34432
2017-08-02T09:40:02.327Z,37280
2017-08-02T09:41:14.873Z,37984
2017-08-02T09:42:27.682Z,39616
2017-08-02T09:43:40.394Z,41024
2017-08-02T09:44:52.721Z,28992
2017-08-02T09:46:05.089Z,30048
2017-08-02T09:47:17.801Z,44128
2017-08-02T09:48:30.391Z,43776
2017-08-02T09:49:42.411Z,41856
2017-08-02T09:50:55.011Z,46976
2017-08-02T09:52:07.588Z,53312
2017-08-02T09:53:19.881Z,57952
2017-08-02T09:54:32.152Z,65312
2017-08-02T09:55:44.409Z,59168
2017-08-02T09:56:56.387Z,26016
2017-08-02T09:58:08.966Z,23904
2017-08-02T09:59:21.561Z,52544
2017-08-02T10:00:33.564Z,41952
2017-08-02T10:01:45.909Z,53888
2017-08-02T10:02:58.261Z,67712
2017-08-02T10:04:10.552Z,65184
2017-08-02T10:05:22.841Z,53024
2017-08-02T10:06:35.437Z,41504
2017-08-02T10:07:48.083Z,34880
2017-08-02T10:09:00.650Z,33536
2017-08-02T10:10:12.949Z,41920
2017-08-02T10:11:25.263Z,35680
2017-08-02T10:12:37.594Z,38944
2017-08-02T10:13:50.244Z,70016
2017-08-02T10:15:02.569Z,71936
2017-08-02T10:16:14.865Z,33152
2017-08-02T10:17:27.536Z,25248
2017-08-02T10:18:39.537Z,25760
2017-08-02T10:19:51.823Z,28064
2017-08-02T10:21:04.454Z,29728
2017-08-02T10:22:16.735Z,29504
2017-08-02T10:23:29.030Z,16876
2017-08-02T10:24:41.061Z,13568
2017-08-02T10:25:53.657Z,11944
2017-08-02T10:27:06.010Z,12212
2017-08-02T10:28:18.605Z,12932
2017-08-02T10:29:30.911Z,14600
2017-08-02T10:30:42.897Z,11872
2017-08-02T10:31:55.557Z,10936
2017-08-02T10:33:07.558Z,12080
2017-08-02T10:34:20.167Z,11904
2017-08-02T10:35:32.446Z,20736
2017-08-02T10:36:44.687Z,31328
2017-08-02T10:37:56.428Z,58272
2017-08-02T10:39:09.027Z,57344
2017-08-02T10:40:21.621Z,72288
2017-08-02T10:41:33.960Z,47552
2017-08-02T10:42:46.257Z,36416
2017-08-02T10:43:58.589Z,68512
2017-08-02T10:45:10.893Z,67136
2017-08-02T10:46:23.527Z,60032
2017-08-02T10:47:36.066Z,70336
2017-08-02T10:48:48.362Z,74592
2017-08-02T10:50:00.962Z,78784
2017-08-02T10:51:13.235Z,80640
2017-08-02T10:52:25.512Z,44608
2017-08-02T10:53:38.158Z,31232
2017-08-02T10:54:50.724Z,52896
2017-08-02T10:56:03.245Z,20768
2017-08-02T10:57:15.501Z,18528
2017-08-02T10:58:28.161Z,15320
2017-08-02T10:59:40.142Z,13832
2017-08-02T11:00:52.462Z,13596
2017-08-02T11:02:05.010Z,13996
2017-08-02T11:03:17.627Z,13536
2017-08-02T11:04:29.871Z,13968
2017-08-02T11:05:42.171Z,16880
2017-08-02T11:06:53.875Z,22720
2017-08-02T11:08:06.439Z,47488
2017-08-02T11:09:19.066Z,33632
2017-08-02T11:10:31.295Z,18208
2017-08-02T11:11:43.591Z,17508
2017-08-02T11:12:55.904Z,17208
2017-08-02T11:14:08.208Z,19936
2017-08-02T11:15:20.784Z,28576
2017-08-02T11:16:32.842Z,40192
2017-08-02T11:17:45.458Z,44544
2017-08-02T11:18:58.121Z,43808
2017-08-02T11:20:09.874Z,40992
2017-08-02T11:21:22.515Z,39392
2017-08-02T11:22:35.158Z,36352
2017-08-02T11:23:47.812Z,38528
2017-08-02T11:25:00.425Z,44992
2017-08-02T11:26:13.029Z,56512
2017-08-02T11:27:25.664Z,44800
2017-08-02T11:28:37.934Z,51648
2017-08-02T11:29:50.488Z,62080
2017-08-02T11:31:02.825Z,37152
2017-08-02T11:32:15.106Z,35072
2017-08-02T11:33:27.700Z,35840
2017-08-02T11:34:39.962Z,73632
2017-08-02T11:35:52.591Z,52224
2017-08-02T11:37:05.180Z,57120
2017-08-02T11:38:17.708Z,39264
2017-08-02T11:39:30.308Z,36544
2017-08-02T11:40:42.304Z,36064
2017-08-02T11:41:54.939Z,36608
2017-08-02T11:43:07.584Z,47104
2017-08-02T11:44:20.137Z,53280
2017-08-02T11:45:32.735Z,47648
2017-08-02T11:46:45.024Z,59264
2017-08-02T11:47:57.350Z,41440
2017-08-02T11:49:09.925Z,67552
2017-08-02T11:50:22.237Z,48064
2017-08-02T11:51:34.542Z,37600
2017-08-02T11:52:47.138Z,33344
2017-08-02T11:53:59.473Z,31744
2017-08-02T11:55:12.081Z,39968
2017-08-02T11:56:24.763Z,54912
2017-08-02T11:57:37.036Z,60640
2017-08-02T11:58:49.898Z,64416
2017-08-02T12:00:02.166Z,72352
2017-08-02T12:01:14.800Z,72352
2017-08-02T12:02:27.137Z,87584
2017-08-02T12:03:39.446Z,83680
2017-08-02T12:04:51.748Z,89248
2017-08-02T12:06:04.318Z,80704
2017-08-02T12:07:16.639Z,75520
2017-08-02T12:08:29.325Z,80320
2017-08-02T12:09:42.012Z,84512
2017-08-02T12:10:54.596Z,63712
2017-08-02T12:12:06.885Z,68192
2017-08-02T12:13:19.495Z,72544
2017-08-02T12:14:31.754Z,78752
2017-08-02T12:15:44.335Z,41728
2017-08-02T12:16:56.662Z,78688
2017-08-02T12:18:09.241Z,32000
2017-08-02T12:19:21.250Z,29152
2017-08-02T12:20:33.860Z,26208
2017-08-02T12:21:46.129Z,27712
2017-08-02T12:22:58.742Z,30944
2017-08-02T12:24:11.044Z,52800
2017-08-02T12:25:23.303Z,28608
2017-08-02T12:26:35.956Z,30112
2017-08-02T12:27:48.589Z,25760
2017-08-02T12:29:00.962Z,27136
2017-08-02T12:30:13.276Z,33216
2017-08-02T12:31:25.645Z,32448
2017-08-02T12:32:38.310Z,28224
2017-08-02T12:33:50.616Z,31712
2017-08-02T12:35:03.276Z,36160
2017-08-02T12:36:15.907Z,39328
2017-08-02T12:37:28.194Z,45056
2017-08-02T12:38:40.808Z,35968
2017-08-02T12:39:53.477Z,39008
2017-08-02T12:41:05.795Z,69984
2017-08-02T12:42:18.634Z,34912
2017-08-02T12:43:30.930Z,36672
2017-08-02T12:44:43.262Z,37376
2017-08-02T12:45:54.953Z,42688
2017-08-02T12:47:07.271Z,35744
2017-08-02T12:48:19.562Z,34752
2017-08-02T12:49:32.223Z,32192
2017-08-02T12:50:44.473Z,28736
2017-08-02T12:51:56.788Z,27232
2017-08-02T12:53:09.050Z,26976
2017-08-02T12:54:21.701Z,27168
2017-08-02T12:55:34.316Z,27712
2017-08-02T12:56:46.917Z,29600
2017-08-02T12:57:59.306Z,33760
2017-08-02T12:59:11.564Z,36384
2017-08-02T13:00:24.148Z,34208
2017-08-02T13:01:36.823Z,31136
2017-08-02T13:02:49.144Z,29088
2017-08-02T13:04:01.210Z,28224
2017-08-02T13:05:13.518Z,27808
2017-08-02T13:06:26.163Z,27520
2017-08-02T13:07:38.823Z,27744
2017-08-02T13:08:51.102Z,27520
2017-08-02T13:10:03.423Z,25952
2017-08-02T13:11:16.019Z,24832
2017-08-02T13:12:28.649Z,24288
2017-08-02T13:13:40.989Z,24224
2017-08-02T13:14:53.254Z,23552
2017-08-02T13:16:05.281Z,22816
2017-08-02T13:17:17.590Z,22816
2017-08-02T13:18:30.255Z,23200
2017-08-02T13:19:43.069Z,24416
2017-08-02T13:20:55.430Z,25984
2017-08-02T13:22:07.378Z,27616
2017-08-02T13:23:19.988Z,28384
2017-08-02T13:24:32.243Z,27904
2017-08-02T13:25:44.241Z,28000
2017-08-02T13:26:56.782Z,28160
2017-08-02T13:28:09.053Z,33344
2017-08-02T13:29:21.674Z,27424
2017-08-02T13:30:34.014Z,24800
2017-08-02T13:31:46.320Z,23136
2017-08-02T13:32:58.592Z,23136
2017-08-02T13:34:11.172Z,24224
2017-08-02T13:35:23.853Z,25696
2017-08-02T13:36:36.136Z,26560
2017-08-02T13:37:48.714Z,27392
2017-08-02T13:39:01.020Z,27136
2017-08-02T13:40:13.681Z,27264
2017-08-02T13:41:25.996Z,31008
2017-08-02T13:42:38.613Z,31904
2017-08-02T13:43:50.894Z,30592
2017-08-02T13:45:03.197Z,38400
2017-08-02T13:46:15.744Z,34336
2017-08-02T13:47:28.321Z,37728
2017-08-02T13:48:40.989Z,41696
2017-08-02T13:49:53.258Z,42912
2017-08-02T13:51:05.555Z,32480
2017-08-02T13:52:18.247Z,28768
2017-08-02T13:53:30.806Z,26592
2017-08-02T13:54:43.139Z,29152
2017-08-02T13:55:55.401Z,40224
2017-08-02T13:57:08.037Z,34432
2017-08-02T13:58:20.878Z,44224
2017-08-02T13:59:33.455Z,52448
2017-08-02T14:00:45.770Z,34880
2017-08-02T14:01:58.003Z,65088
2017-08-02T14:03:10.017Z,63168
2017-08-02T14:04:22.286Z,52288
2017-08-02T14:05:34.878Z,38432
2017-08-02T14:06:47.497Z,55296
2017-08-02T14:07:59.455Z,29632
2017-08-02T14:09:11.819Z,38496
2017-08-02T14:10:24.126Z,36384
2017-08-02T14:11:36.761Z,34144
2017-08-02T14:12:49.057Z,42368
2017-08-02T14:14:01.656Z,29728
2017-08-02T14:15:13.676Z,47872
2017-08-02T14:16:26.302Z,46016
2017-08-02T14:17:38.323Z,47584
2017-08-02T14:18:50.694Z,45760
2017-08-02T14:20:03.365Z,33664
2017-08-02T14:21:15.728Z,37312
2017-08-02T14:22:28.307Z,15924
2017-08-02T14:23:40.373Z,20864
2017-08-02T14:24:52.938Z,35392
2017-08-02T14:26:05.216Z,49472
2017-08-02T14:27:17.861Z,48480
2017-08-02T14:28:30.472Z,47648
2017-08-02T14:29:42.699Z,46112
2017-08-02T14:30:54.353Z,42976
2017-08-02T14:32:06.370Z,36960
2017-08-02T14:33:18.701Z,36416
2017-08-02T14:34:31.265Z,38592
2017-08-02T14:35:43.868Z,36640
2017-08-02T14:36:56.437Z,32320
2017-08-02T14:38:08.853Z,31936
2017-08-02T14:39:21.149Z,28960
2017-08-02T14:40:33.503Z,13784
2017-08-02T14:41:46.131Z,13516
2017-08-02T14:42:58.420Z,10932
2017-08-02T14:44:10.722Z,8088
2017-08-02T14:45:23.337Z,8396
2017-08-02T14:46:35.931Z,8344
2017-08-02T14:47:48.575Z,9588
2017-08-02T14:49:01.167Z,11760
2017-08-02T14:50:13.483Z,12752
2017-08-02T14:51:25.747Z,13744
2017-08-02T14:52:38.385Z,14224
2017-08-02T14:53:51.016Z,13836
2017-08-02T14:55:03.017Z,13308
2017-08-02T14:56:15.664Z,12384
2017-08-02T14:57:28.284Z,11284
2017-08-02T14:58:40.608Z,10108
2017-08-02T14:59:52.885Z,9176
2017-08-02T15:01:05.217Z,8796
2017-08-02T15:02:17.820Z,8416
2017-08-02T15:03:30.310Z,7960
2017-08-02T15:04:42.898Z,8276
2017-08-02T15:05:55.149Z,9200
2017-08-02T15:07:07.394Z,9804
2017-08-02T15:08:20.058Z,10184
2017-08-02T15:09:32.696Z,10260
2017-08-02T15:10:44.956Z,10052
2017-08-02T15:11:57.228Z,9684
2017-08-02T15:13:09.474Z,9340
2017-08-02T15:14:22.068Z,8476
2017-08-02T15:15:34.342Z,7976
2017-08-02T15:16:46.622Z,7264
2017-08-02T15:17:59.268Z,7156
2017-08-02T15:19:11.912Z,7076
2017-08-02T15:20:24.555Z,6836
2017-08-02T15:21:36.898Z,6388
2017-08-02T15:22:49.173Z,6236
2017-08-02T15:24:01.787Z,6228
2017-08-02T15:25:14.093Z,6040
2017-08-02T15:26:26.115Z,5952
2017-08-02T15:27:38.435Z,6496
2017-08-02T15:28:51.089Z,7720
2017-08-02T15:30:03.703Z,8832
2017-08-02T15:31:16.035Z,10144
2017-08-02T15:32:28.091Z,11276
2017-08-02T15:33:40.679Z,11832
2017-08-02T15:34:53.269Z,11712
2017-08-02T15:36:05.556Z,11096
2017-08-02T15:37:18.221Z,10248
2017-08-02T15:38:30.494Z,9292
2017-08-02T15:39:43.045Z,8392
2017-08-02T15:40:55.005Z,7672
2017-08-02T15:42:07.576Z,7072
2017-08-02T15:43:20.146Z,6636
2017-08-02T15:44:32.750Z,6432
2017-08-02T15:45:45.390Z,6292
2017-08-02T15:46:57.715Z,6164
2017-08-02T15:48:10.320Z,5936
2017-08-02T15:49:22.958Z,5888
2017-08-02T15:50:35.559Z,6020
2017-08-02T15:51:48.176Z,6272
2017-08-02T15:53:00.131Z,6460
2017-08-02T15:54:12.760Z,6612
2017-08-02T15:55:25.433Z,6736
2017-08-02T15:56:38.052Z,6808
2017-08-02T15:57:50.654Z,6796
2017-08-02T15:59:03.319Z,6664
2017-08-02T16:00:15.889Z,6412
2017-08-02T16:01:28.485Z,6152
2017-08-02T16:02:40.692Z,5936
2017-08-02T16:03:53.253Z,5748
2017-08-02T16:05:04.961Z,5652